This is the latest recevied weather packets stored in our database for station/object DL5TW-13. If no packets are shown the sender has not sent any weather packets the latest 10 day(s).
| Time | Temp. | Humidity | Pressure | Rain* | Wind** | Luminosity | Snow |
|---|---|---|---|---|---|---|---|
| 1778064976 | 19.44° C | 56% | 1000.5 hPa | 0 mm | - | - | - |
| 1778064675 | 19.44° C | 55% | 1000.6 hPa | 0 mm | - | - | - |
| 1778064375 | 20° C | 57% | 1000.6 hPa | 0 mm | - | - | - |
| 1778064075 | 20° C | 57% | 1000.4 hPa | 0 mm | - | - | - |
| 1778063775 | 19.44° C | 59% | 1000.5 hPa | 0 mm | - | - | - |
| 1778063474 | 18.89° C | 61% | 1000.6 hPa | 0 mm | - | - | - |
| 1778063174 | 17.78° C | 64% | 1000.6 hPa | 0 mm | - | - | - |
| 1778062874 | 17.22° C | 64% | 1000.7 hPa | 0 mm | - | - | - |
| 1778062573 | 17.22° C | 64% | 1000.8 hPa | 0 mm | - | - | - |
| 1778062273 | 17.22° C | 64% | 1000.8 hPa | 0 mm | - | - | - |
| 1778061973 | 16.67° C | 63% | 1000.8 hPa | 0 mm | - | - | - |
| 1778061673 | 17.22° C | 64% | 1000.9 hPa | 0 mm | - | - | - |
| 1778061372 | 17.78° C | 62% | 1001.1 hPa | 0 mm | - | - | - |
| 1778061072 | 17.78° C | 62% | 1001 hPa | 0 mm | - | - | - |
| 1778060772 | 17.78° C | 62% | 1000.9 hPa | 0 mm | - | - | - |
| 1778060471 | 17.78° C | 61% | 1000.9 hPa | 0 mm | - | - | - |
| 1778060171 | 18.33° C | 60% | 1000.8 hPa | 0 mm | - | - | - |
| 1778059871 | 18.89° C | 59% | 1000.8 hPa | 0 mm | - | - | - |
| 1778059570 | 19.44° C | 59% | 1000.6 hPa | 0 mm | - | - | - |
| 1778059270 | 19.44° C | 59% | 1000.6 hPa | 0 mm | - | - | - |
| 1778058970 | 19.44° C | 59% | 1000.5 hPa | 0 mm | - | - | - |
| 1778058670 | 18.89° C | 61% | 1000.6 hPa | 0 mm | - | - | - |
| 1778058369 | 18.33° C | 62% | 1000.5 hPa | 0 mm | - | - | - |
| 1778058069 | 17.78° C | 62% | 1000.3 hPa | 0 mm | - | - | - |
| 1778057769 | 17.22° C | 64% | 1000.3 hPa | 0 mm | - | - | - |
* Rain latest hour (hover to see other rain measurements)
** Current wind speed in m/s (hover to see current wind gust speed)